sensor_id;sensor_type;location;lat;lon;timestamp;P1;durP1;ratioP1;P2;durP2;ratioP2
50309;SDS011;36207;51.850;21.698;2023-01-01T00:00:25;12.50;;;7.60;;
50309;SDS011;36207;51.850;21.698;2023-01-01T00:03:11;12.70;;;7.80;;
50309;SDS011;36207;51.850;21.698;2023-01-01T00:05:37;13.20;;;7.80;;
50309;SDS011;36207;51.850;21.698;2023-01-01T00:08:04;13.10;;;7.80;;
50309;SDS011;36207;51.850;21.698;2023-01-01T00:10:30;12.40;;;7.80;;
50309;SDS011;36207;51.850;21.698;2023-01-01T00:12:57;14.50;;;8.60;;
50309;SDS011;36207;51.850;21.698;2023-01-01T00:15:24;14.30;;;8.10;;
50309;SDS011;36207;51.850;21.698;2023-01-01T00:17:52;12.60;;;7.60;;
50309;SDS011;36207;51.850;21.698;2023-01-01T00:20:19;12.70;;;7.90;;
50309;SDS011;36207;51.850;21.698;2023-01-01T00:22:46;13.20;;;7.80;;
50309;SDS011;36207;51.850;21.698;2023-01-01T00:25:12;15.20;;;7.80;;
50309;SDS011;36207;51.850;21.698;2023-01-01T00:27:43;13.30;;;8.10;;
50309;SDS011;36207;51.850;21.698;2023-01-01T00:30:09;12.00;;;7.60;;
50309;SDS011;36207;51.850;21.698;2023-01-01T00:32:36;17.30;;;8.80;;
50309;SDS011;36207;51.850;21.698;2023-01-01T00:35:04;14.40;;;8.00;;
50309;SDS011;36207;51.850;21.698;2023-01-01T00:37:32;13.40;;;8.10;;
50309;SDS011;36207;51.850;21.698;2023-01-01T00:40:02;16.00;;;8.50;;
50309;SDS011;36207;51.850;21.698;2023-01-01T00:42:28;14.10;;;8.50;;
50309;SDS011;36207;51.850;21.698;2023-01-01T00:44:55;13.70;;;8.30;;
50309;SDS011;36207;51.850;21.698;2023-01-01T00:47:21;13.70;;;8.50;;
50309;SDS011;36207;51.850;21.698;2023-01-01T00:49:48;14.40;;;9.00;;
50309;SDS011;36207;51.850;21.698;2023-01-01T00:52:14;15.20;;;9.30;;
50309;SDS011;36207;51.850;21.698;2023-01-01T00:54:40;15.50;;;8.90;;
50309;SDS011;36207;51.850;21.698;2023-01-01T00:57:07;13.90;;;8.90;;
50309;SDS011;36207;51.850;21.698;2023-01-01T00:59:33;14.70;;;9.00;;
50309;SDS011;36207;51.850;21.698;2023-01-01T01:01:59;13.90;;;8.90;;
50309;SDS011;36207;51.850;21.698;2023-01-01T01:04:25;14.20;;;9.20;;
50309;SDS011;36207;51.850;21.698;2023-01-01T01:06:52;15.90;;;9.60;;
50309;SDS011;36207;51.850;21.698;2023-01-01T01:09:18;17.00;;;9.60;;
50309;SDS011;36207;51.850;21.698;2023-01-01T01:11:44;15.10;;;9.90;;
50309;SDS011;36207;51.850;21.698;2023-01-01T01:14:11;16.20;;;9.60;;
50309;SDS011;36207;51.850;21.698;2023-01-01T01:16:37;16.70;;;9.70;;
50309;SDS011;36207;51.850;21.698;2023-01-01T01:19:03;15.20;;;9.60;;
50309;SDS011;36207;51.850;21.698;2023-01-01T01:21:31;14.80;;;9.00;;
50309;SDS011;36207;51.850;21.698;2023-01-01T01:23:59;16.40;;;9.80;;
50309;SDS011;36207;51.850;21.698;2023-01-01T01:26:28;15.70;;;9.70;;
50309;SDS011;36207;51.850;21.698;2023-01-01T01:28:56;14.40;;;8.80;;
50309;SDS011;36207;51.850;21.698;2023-01-01T01:31:23;15.50;;;9.30;;
50309;SDS011;36207;51.850;21.698;2023-01-01T01:33:53;14.10;;;8.80;;
50309;SDS011;36207;51.850;21.698;2023-01-01T01:36:21;16.00;;;8.50;;
50309;SDS011;36207;51.850;21.698;2023-01-01T01:38:47;14.20;;;9.00;;
50309;SDS011;36207;51.850;21.698;2023-01-01T01:41:14;14.10;;;9.00;;
50309;SDS011;36207;51.850;21.698;2023-01-01T01:46:12;14.60;;;8.80;;
50309;SDS011;36207;51.850;21.698;2023-01-01T01:48:43;14.80;;;8.20;;
50309;SDS011;36207;51.850;21.698;2023-01-01T01:51:14;16.20;;;8.60;;
50309;SDS011;36207;51.850;21.698;2023-01-01T01:53:44;12.90;;;8.30;;
50309;SDS011;36207;51.850;21.698;2023-01-01T01:56:15;14.50;;;8.50;;
50309;SDS011;36207;51.850;21.698;2023-01-01T01:58:46;15.50;;;8.80;;
50309;SDS011;36207;51.850;21.698;2023-01-01T02:01:12;12.70;;;8.30;;
50309;SDS011;36207;51.850;21.698;2023-01-01T02:03:40;13.50;;;8.60;;
50309;SDS011;36207;51.850;21.698;2023-01-01T02:06:14;13.80;;;8.20;;
50309;SDS011;36207;51.850;21.698;2023-01-01T02:08:42;12.30;;;7.70;;
50309;SDS011;36207;51.850;21.698;2023-01-01T02:11:08;11.70;;;7.60;;
50309;SDS011;36207;51.850;21.698;2023-01-01T02:13:35;13.10;;;8.10;;
50309;SDS011;36207;51.850;21.698;2023-01-01T02:16:12;14.90;;;8.10;;
50309;SDS011;36207;51.850;21.698;2023-01-01T02:19:00;13.00;;;7.90;;
50309;SDS011;36207;51.850;21.698;2023-01-01T02:21:44;13.80;;;7.70;;
50309;SDS011;36207;51.850;21.698;2023-01-01T02:29:41;12.80;;;7.90;;
50309;SDS011;36207;51.850;21.698;2023-01-01T02:34:50;13.90;;;8.00;;
50309;SDS011;36207;51.850;21.698;2023-01-01T02:37:50;15.20;;;8.20;;
50309;SDS011;36207;51.850;21.698;2023-01-01T02:40:21;13.40;;;8.30;;
50309;SDS011;36207;51.850;21.698;2023-01-01T02:42:50;13.10;;;8.20;;
50309;SDS011;36207;51.850;21.698;2023-01-01T02:45:18;14.20;;;8.00;;
50309;SDS011;36207;51.850;21.698;2023-01-01T02:47:45;13.00;;;7.70;;
50309;SDS011;36207;51.850;21.698;2023-01-01T02:50:12;12.10;;;7.80;;
50309;SDS011;36207;51.850;21.698;2023-01-01T02:55:56;11.50;;;7.60;;
50309;SDS011;36207;51.850;21.698;2023-01-01T02:58:51;13.60;;;7.40;;
50309;SDS011;36207;51.850;21.698;2023-01-01T03:01:56;12.50;;;7.70;;
50309;SDS011;36207;51.850;21.698;2023-01-01T03:04:42;12.90;;;7.30;;
50309;SDS011;36207;51.850;21.698;2023-01-01T03:10:23;12.10;;;7.30;;
50309;SDS011;36207;51.850;21.698;2023-01-01T03:13:08;12.30;;;7.60;;
50309;SDS011;36207;51.850;21.698;2023-01-01T03:20:56;12.10;;;7.20;;
50309;SDS011;36207;51.850;21.698;2023-01-01T03:23:25;11.20;;;7.10;;
50309;SDS011;36207;51.850;21.698;2023-01-01T03:26:01;12.30;;;7.20;;
50309;SDS011;36207;51.850;21.698;2023-01-01T03:28:36;13.40;;;7.10;;
50309;SDS011;36207;51.850;21.698;2023-01-01T03:31:09;11.60;;;7.40;;
50309;SDS011;36207;51.850;21.698;2023-01-01T03:33:51;12.50;;;7.30;;
50309;SDS011;36207;51.850;21.698;2023-01-01T03:36:23;11.40;;;7.10;;
50309;SDS011;36207;51.850;21.698;2023-01-01T03:39:03;12.80;;;7.30;;
50309;SDS011;36207;51.850;21.698;2023-01-01T03:41:39;10.60;;;6.90;;
50309;SDS011;36207;51.850;21.698;2023-01-01T03:46:55;10.40;;;6.40;;
50309;SDS011;36207;51.850;21.698;2023-01-01T03:49:22;12.10;;;6.60;;
50309;SDS011;36207;51.850;21.698;2023-01-01T03:57:16;13.80;;;6.70;;
50309;SDS011;36207;51.850;21.698;2023-01-01T04:02:40;9.50;;;5.50;;
50309;SDS011;36207;51.850;21.698;2023-01-01T04:05:07;10.50;;;5.70;;
50309;SDS011;36207;51.850;21.698;2023-01-01T04:07:35;8.70;;;5.40;;
50309;SDS011;36207;51.850;21.698;2023-01-01T04:10:03;11.00;;;5.80;;
50309;SDS011;36207;51.850;21.698;2023-01-01T04:12:45;10.00;;;5.70;;
50309;SDS011;36207;51.850;21.698;2023-01-01T04:15:14;8.60;;;5.30;;
50309;SDS011;36207;51.850;21.698;2023-01-01T04:17:41;9.50;;;5.60;;
50309;SDS011;36207;51.850;21.698;2023-01-01T04:20:08;8.40;;;5.40;;
50309;SDS011;36207;51.850;21.698;2023-01-01T04:22:35;8.20;;;4.90;;
50309;SDS011;36207;51.850;21.698;2023-01-01T04:25:02;10.20;;;5.10;;
50309;SDS011;36207;51.850;21.698;2023-01-01T04:27:28;8.10;;;5.10;;
50309;SDS011;36207;51.850;21.698;2023-01-01T04:29:55;8.60;;;5.10;;
50309;SDS011;36207;51.850;21.698;2023-01-01T04:32:21;8.60;;;5.00;;
50309;SDS011;36207;51.850;21.698;2023-01-01T04:34:47;8.30;;;5.20;;
50309;SDS011;36207;51.850;21.698;2023-01-01T04:37:13;8.60;;;5.10;;
50309;SDS011;36207;51.850;21.698;2023-01-01T04:39:40;8.40;;;4.60;;
50309;SDS011;36207;51.850;21.698;2023-01-01T04:42:07;9.10;;;5.00;;
50309;SDS011;36207;51.850;21.698;2023-01-01T04:44:34;8.70;;;4.90;;
50309;SDS011;36207;51.850;21.698;2023-01-01T04:47:00;9.10;;;5.20;;
50309;SDS011;36207;51.850;21.698;2023-01-01T04:49:27;8.20;;;4.90;;
50309;SDS011;36207;51.850;21.698;2023-01-01T04:51:53;8.90;;;5.00;;
50309;SDS011;36207;51.850;21.698;2023-01-01T04:54:19;8.60;;;5.30;;
50309;SDS011;36207;51.850;21.698;2023-01-01T04:56:45;10.10;;;5.30;;
50309;SDS011;36207;51.850;21.698;2023-01-01T04:59:11;9.30;;;4.90;;
50309;SDS011;36207;51.850;21.698;2023-01-01T05:01:38;9.20;;;5.00;;
50309;SDS011;36207;51.850;21.698;2023-01-01T05:04:04;10.20;;;4.70;;
50309;SDS011;36207;51.850;21.698;2023-01-01T05:06:30;9.30;;;5.30;;
50309;SDS011;36207;51.850;21.698;2023-01-01T05:08:56;8.00;;;4.70;;
50309;SDS011;36207;51.850;21.698;2023-01-01T05:11:25;9.30;;;5.20;;
50309;SDS011;36207;51.850;21.698;2023-01-01T05:13:54;8.00;;;4.90;;
50309;SDS011;36207;51.850;21.698;2023-01-01T05:16:24;8.70;;;5.00;;
50309;SDS011;36207;51.850;21.698;2023-01-01T05:18:52;7.80;;;5.20;;
50309;SDS011;36207;51.850;21.698;2023-01-01T05:21:20;10.40;;;4.80;;
50309;SDS011;36207;51.850;21.698;2023-01-01T05:23:55;9.20;;;5.20;;
50309;SDS011;36207;51.850;21.698;2023-01-01T05:26:24;7.80;;;5.00;;
50309;SDS011;36207;51.850;21.698;2023-01-01T05:28:53;7.80;;;5.10;;
50309;SDS011;36207;51.850;21.698;2023-01-01T05:31:21;9.70;;;4.90;;
50309;SDS011;36207;51.850;21.698;2023-01-01T05:33:49;9.30;;;5.10;;
50309;SDS011;36207;51.850;21.698;2023-01-01T05:36:18;10.60;;;4.40;;
50309;SDS011;36207;51.850;21.698;2023-01-01T05:38:48;9.10;;;5.10;;
50309;SDS011;36207;51.850;21.698;2023-01-01T05:41:15;8.30;;;4.50;;
50309;SDS011;36207;51.850;21.698;2023-01-01T05:43:43;6.40;;;4.30;;
50309;SDS011;36207;51.850;21.698;2023-01-01T05:46:10;8.00;;;4.80;;
50309;SDS011;36207;51.850;21.698;2023-01-01T05:48:41;7.30;;;4.70;;
50309;SDS011;36207;51.850;21.698;2023-01-01T05:51:09;8.70;;;4.80;;
50309;SDS011;36207;51.850;21.698;2023-01-01T05:53:38;9.10;;;4.70;;
50309;SDS011;36207;51.850;21.698;2023-01-01T05:56:06;7.90;;;4.70;;
50309;SDS011;36207;51.850;21.698;2023-01-01T05:58:33;7.50;;;4.50;;
50309;SDS011;36207;51.850;21.698;2023-01-01T06:01:07;8.40;;;4.50;;
50309;SDS011;36207;51.850;21.698;2023-01-01T06:03:39;9.70;;;4.50;;
50309;SDS011;36207;51.850;21.698;2023-01-01T06:06:06;9.40;;;4.80;;
50309;SDS011;36207;51.850;21.698;2023-01-01T06:08:35;6.50;;;4.30;;
50309;SDS011;36207;51.850;21.698;2023-01-01T06:11:02;6.40;;;4.20;;
50309;SDS011;36207;51.850;21.698;2023-01-01T06:13:31;9.20;;;4.60;;
50309;SDS011;36207;51.850;21.698;2023-01-01T06:15:58;8.90;;;4.50;;
50309;SDS011;36207;51.850;21.698;2023-01-01T06:18:28;8.80;;;4.70;;
50309;SDS011;36207;51.850;21.698;2023-01-01T06:21:03;7.60;;;4.60;;
50309;SDS011;36207;51.850;21.698;2023-01-01T06:23:31;7.90;;;4.30;;
50309;SDS011;36207;51.850;21.698;2023-01-01T06:26:02;6.60;;;4.20;;
50309;SDS011;36207;51.850;21.698;2023-01-01T06:28:29;7.90;;;4.60;;
50309;SDS011;36207;51.850;21.698;2023-01-01T06:30:58;7.70;;;4.20;;
50309;SDS011;36207;51.850;21.698;2023-01-01T06:33:27;7.10;;;4.40;;
50309;SDS011;36207;51.850;21.698;2023-01-01T06:35:55;8.90;;;4.50;;
50309;SDS011;36207;51.850;21.698;2023-01-01T06:38:21;7.80;;;4.50;;
50309;SDS011;36207;51.850;21.698;2023-01-01T06:40:54;7.10;;;4.30;;
50309;SDS011;36207;51.850;21.698;2023-01-01T06:43:25;6.80;;;4.30;;
50309;SDS011;36207;51.850;21.698;2023-01-01T06:46:05;7.60;;;4.60;;
50309;SDS011;36207;51.850;21.698;2023-01-01T06:48:37;8.70;;;4.30;;
50309;SDS011;36207;51.850;21.698;2023-01-01T06:51:08;8.60;;;4.50;;
50309;SDS011;36207;51.850;21.698;2023-01-01T06:53:37;8.20;;;4.50;;
50309;SDS011;36207;51.850;21.698;2023-01-01T06:56:04;8.00;;;4.30;;
50309;SDS011;36207;51.850;21.698;2023-01-01T06:58:31;8.70;;;4.50;;
50309;SDS011;36207;51.850;21.698;2023-01-01T07:01:10;6.40;;;4.30;;
50309;SDS011;36207;51.850;21.698;2023-01-01T07:03:41;7.90;;;4.20;;
50309;SDS011;36207;51.850;21.698;2023-01-01T07:06:09;7.80;;;4.50;;
50309;SDS011;36207;51.850;21.698;2023-01-01T07:08:36;6.70;;;4.20;;
50309;SDS011;36207;51.850;21.698;2023-01-01T07:11:02;9.00;;;4.60;;
50309;SDS011;36207;51.850;21.698;2023-01-01T07:13:29;9.90;;;4.50;;
50309;SDS011;36207;51.850;21.698;2023-01-01T07:15:56;7.30;;;4.60;;
50309;SDS011;36207;51.850;21.698;2023-01-01T07:18:23;8.10;;;4.50;;
50309;SDS011;36207;51.850;21.698;2023-01-01T07:20:54;8.30;;;4.20;;
50309;SDS011;36207;51.850;21.698;2023-01-01T07:23:25;9.90;;;4.60;;
50309;SDS011;36207;51.850;21.698;2023-01-01T07:25:53;8.80;;;4.50;;
50309;SDS011;36207;51.850;21.698;2023-01-01T07:28:21;7.80;;;4.60;;
50309;SDS011;36207;51.850;21.698;2023-01-01T07:30:48;9.70;;;4.40;;
50309;SDS011;36207;51.850;21.698;2023-01-01T07:33:15;7.30;;;4.30;;
50309;SDS011;36207;51.850;21.698;2023-01-01T07:35:44;7.60;;;4.20;;
50309;SDS011;36207;51.850;21.698;2023-01-01T07:38:11;8.40;;;4.60;;
50309;SDS011;36207;51.850;21.698;2023-01-01T07:40:38;9.30;;;4.60;;
50309;SDS011;36207;51.850;21.698;2023-01-01T07:43:05;9.50;;;4.80;;
50309;SDS011;36207;51.850;21.698;2023-01-01T07:45:32;7.70;;;4.40;;
50309;SDS011;36207;51.850;21.698;2023-01-01T07:47:59;10.50;;;4.30;;
50309;SDS011;36207;51.850;21.698;2023-01-01T07:50:28;9.20;;;4.20;;
50309;SDS011;36207;51.850;21.698;2023-01-01T07:52:56;9.30;;;4.40;;
50309;SDS011;36207;51.850;21.698;2023-01-01T07:55:22;8.30;;;4.10;;
50309;SDS011;36207;51.850;21.698;2023-01-01T07:57:49;9.00;;;4.00;;
50309;SDS011;36207;51.850;21.698;2023-01-01T08:00:16;11.00;;;4.40;;
50309;SDS011;36207;51.850;21.698;2023-01-01T08:02:44;9.30;;;4.70;;
50309;SDS011;36207;51.850;21.698;2023-01-01T08:05:11;7.20;;;4.00;;
50309;SDS011;36207;51.850;21.698;2023-01-01T08:07:38;8.60;;;4.60;;
50309;SDS011;36207;51.850;21.698;2023-01-01T08:10:04;11.10;;;5.30;;
50309;SDS011;36207;51.850;21.698;2023-01-01T08:12:32;8.50;;;4.10;;
50309;SDS011;36207;51.850;21.698;2023-01-01T08:14:58;8.10;;;4.20;;
50309;SDS011;36207;51.850;21.698;2023-01-01T08:17:24;9.50;;;4.20;;
50309;SDS011;36207;51.850;21.698;2023-01-01T08:19:50;9.70;;;5.30;;
50309;SDS011;36207;51.850;21.698;2023-01-01T08:22:17;8.70;;;4.70;;
50309;SDS011;36207;51.850;21.698;2023-01-01T08:24:44;9.90;;;4.80;;
50309;SDS011;36207;51.850;21.698;2023-01-01T08:27:13;8.10;;;4.20;;
50309;SDS011;36207;51.850;21.698;2023-01-01T08:29:41;9.20;;;4.20;;
50309;SDS011;36207;51.850;21.698;2023-01-01T08:32:07;8.20;;;3.80;;
50309;SDS011;36207;51.850;21.698;2023-01-01T08:34:33;8.90;;;4.10;;
50309;SDS011;36207;51.850;21.698;2023-01-01T08:37:00;8.20;;;3.90;;
50309;SDS011;36207;51.850;21.698;2023-01-01T08:39:27;8.80;;;4.50;;
50309;SDS011;36207;51.850;21.698;2023-01-01T08:41:53;9.40;;;4.50;;
50309;SDS011;36207;51.850;21.698;2023-01-01T08:44:20;10.50;;;4.20;;
50309;SDS011;36207;51.850;21.698;2023-01-01T08:46:47;10.40;;;4.00;;
50309;SDS011;36207;51.850;21.698;2023-01-01T08:49:13;8.40;;;4.40;;
50309;SDS011;36207;51.850;21.698;2023-01-01T08:51:39;10.30;;;4.00;;
50309;SDS011;36207;51.850;21.698;2023-01-01T08:54:06;8.90;;;4.40;;
50309;SDS011;36207;51.850;21.698;2023-01-01T08:56:32;9.60;;;4.20;;
50309;SDS011;36207;51.850;21.698;2023-01-01T08:58:59;11.40;;;4.20;;
50309;SDS011;36207;51.850;21.698;2023-01-01T09:01:25;9.90;;;4.10;;
50309;SDS011;36207;51.850;21.698;2023-01-01T09:03:52;11.20;;;4.20;;
50309;SDS011;36207;51.850;21.698;2023-01-01T09:06:19;9.40;;;4.10;;
50309;SDS011;36207;51.850;21.698;2023-01-01T09:08:45;9.20;;;4.00;;
50309;SDS011;36207;51.850;21.698;2023-01-01T09:11:30;10.60;;;4.20;;
50309;SDS011;36207;51.850;21.698;2023-01-01T09:13:56;7.70;;;4.10;;
50309;SDS011;36207;51.850;21.698;2023-01-01T09:16:22;9.90;;;4.00;;
50309;SDS011;36207;51.850;21.698;2023-01-01T09:18:49;7.80;;;3.90;;
50309;SDS011;36207;51.850;21.698;2023-01-01T09:21:15;19.00;;;4.30;;
50309;SDS011;36207;51.850;21.698;2023-01-01T09:23:42;7.80;;;3.90;;
50309;SDS011;36207;51.850;21.698;2023-01-01T09:26:08;8.10;;;3.70;;
50309;SDS011;36207;51.850;21.698;2023-01-01T09:28:35;11.50;;;3.80;;
50309;SDS011;36207;51.850;21.698;2023-01-01T09:31:02;10.20;;;4.10;;
50309;SDS011;36207;51.850;21.698;2023-01-01T09:33:31;11.60;;;4.30;;
50309;SDS011;36207;51.850;21.698;2023-01-01T09:36:15;10.40;;;4.20;;
50309;SDS011;36207;51.850;21.698;2023-01-01T09:38:51;11.20;;;4.50;;
50309;SDS011;36207;51.850;21.698;2023-01-01T09:41:23;7.30;;;3.80;;
50309;SDS011;36207;51.850;21.698;2023-01-01T09:44:00;8.10;;;4.00;;
50309;SDS011;36207;51.850;21.698;2023-01-01T09:46:35;12.50;;;4.00;;
50309;SDS011;36207;51.850;21.698;2023-01-01T09:49:04;11.00;;;4.20;;
50309;SDS011;36207;51.850;21.698;2023-01-01T09:51:37;12.90;;;4.20;;
50309;SDS011;36207;51.850;21.698;2023-01-01T09:54:15;11.30;;;4.30;;
50309;SDS011;36207;51.850;21.698;2023-01-01T09:56:58;10.70;;;4.20;;
50309;SDS011;36207;51.850;21.698;2023-01-01T09:59:26;11.20;;;4.30;;
50309;SDS011;36207;51.850;21.698;2023-01-01T10:01:56;8.40;;;4.20;;
50309;SDS011;36207;51.850;21.698;2023-01-01T10:07:22;10.70;;;4.40;;
50309;SDS011;36207;51.850;21.698;2023-01-01T10:15:33;10.50;;;4.20;;
50309;SDS011;36207;51.850;21.698;2023-01-01T10:20:43;12.10;;;4.20;;
50309;SDS011;36207;51.850;21.698;2023-01-01T10:25:50;11.90;;;4.10;;
50309;SDS011;36207;51.850;21.698;2023-01-01T10:28:21;18.30;;;4.30;;
50309;SDS011;36207;51.850;21.698;2023-01-01T10:30:54;12.50;;;4.30;;
50309;SDS011;36207;51.850;21.698;2023-01-01T10:33:44;10.50;;;4.00;;
50309;SDS011;36207;51.850;21.698;2023-01-01T10:36:12;12.70;;;4.30;;
50309;SDS011;36207;51.850;21.698;2023-01-01T10:38:41;14.20;;;4.10;;
50309;SDS011;36207;51.850;21.698;2023-01-01T10:41:09;13.70;;;4.50;;
50309;SDS011;36207;51.850;21.698;2023-01-01T10:43:37;11.20;;;4.20;;
50309;SDS011;36207;51.850;21.698;2023-01-01T10:46:04;11.10;;;3.90;;
50309;SDS011;36207;51.850;21.698;2023-01-01T10:48:31;11.10;;;4.10;;
50309;SDS011;36207;51.850;21.698;2023-01-01T10:53:27;10.10;;;4.00;;
50309;SDS011;36207;51.850;21.698;2023-01-01T11:06:43;12.10;;;4.50;;
50309;SDS011;36207;51.850;21.698;2023-01-01T11:11:59;11.90;;;4.30;;
50309;SDS011;36207;51.850;21.698;2023-01-01T11:14:28;12.00;;;4.10;;
50309;SDS011;36207;51.850;21.698;2023-01-01T11:17:22;12.70;;;4.20;;
50309;SDS011;36207;51.850;21.698;2023-01-01T11:19:53;12.30;;;4.20;;
50309;SDS011;36207;51.850;21.698;2023-01-01T11:22:41;14.50;;;4.60;;
50309;SDS011;36207;51.850;21.698;2023-01-01T11:25:21;11.70;;;3.50;;
50309;SDS011;36207;51.850;21.698;2023-01-01T11:27:50;12.60;;;4.20;;
50309;SDS011;36207;51.850;21.698;2023-01-01T11:32:44;13.00;;;4.00;;
50309;SDS011;36207;51.850;21.698;2023-01-01T11:35:19;15.60;;;4.40;;
50309;SDS011;36207;51.850;21.698;2023-01-01T11:37:48;13.20;;;4.20;;
50309;SDS011;36207;51.850;21.698;2023-01-01T11:40:24;10.10;;;4.40;;
50309;SDS011;36207;51.850;21.698;2023-01-01T11:42:58;13.50;;;4.90;;
50309;SDS011;36207;51.850;21.698;2023-01-01T11:45:27;20.00;;;4.90;;
50309;SDS011;36207;51.850;21.698;2023-01-01T11:48:03;13.80;;;4.20;;
50309;SDS011;36207;51.850;21.698;2023-01-01T11:50:37;13.20;;;4.70;;
50309;SDS011;36207;51.850;21.698;2023-01-01T12:01:15;13.30;;;4.90;;
50309;SDS011;36207;51.850;21.698;2023-01-01T12:04:01;10.10;;;4.50;;
50309;SDS011;36207;51.850;21.698;2023-01-01T12:06:33;10.70;;;4.90;;
50309;SDS011;36207;51.850;21.698;2023-01-01T12:09:05;13.80;;;4.90;;
50309;SDS011;36207;51.850;21.698;2023-01-01T12:19:55;9.90;;;4.60;;
50309;SDS011;36207;51.850;21.698;2023-01-01T12:22:25;13.20;;;4.30;;
50309;SDS011;36207;51.850;21.698;2023-01-01T12:24:52;11.10;;;4.50;;
50309;SDS011;36207;51.850;21.698;2023-01-01T12:27:30;12.60;;;4.80;;
50309;SDS011;36207;51.850;21.698;2023-01-01T12:33:02;11.20;;;4.70;;
50309;SDS011;36207;51.850;21.698;2023-01-01T12:36:02;9.60;;;4.60;;
50309;SDS011;36207;51.850;21.698;2023-01-01T12:52:01;13.60;;;5.90;;
50309;SDS011;36207;51.850;21.698;2023-01-01T12:57:16;14.20;;;5.10;;
50309;SDS011;36207;51.850;21.698;2023-01-01T13:00:20;13.30;;;4.40;;
50309;SDS011;36207;51.850;21.698;2023-01-01T13:03:30;14.60;;;4.40;;
50309;SDS011;36207;51.850;21.698;2023-01-01T13:05:59;13.10;;;4.50;;
50309;SDS011;36207;51.850;21.698;2023-01-01T13:08:26;10.20;;;4.90;;
50309;SDS011;36207;51.850;21.698;2023-01-01T13:10:53;15.00;;;4.80;;
50309;SDS011;36207;51.850;21.698;2023-01-01T13:13:22;12.10;;;4.80;;
50309;SDS011;36207;51.850;21.698;2023-01-01T13:15:53;11.50;;;4.40;;
50309;SDS011;36207;51.850;21.698;2023-01-01T13:18:41;10.50;;;4.70;;
50309;SDS011;36207;51.850;21.698;2023-01-01T13:23:42;12.70;;;4.60;;
50309;SDS011;36207;51.850;21.698;2023-01-01T13:26:29;10.00;;;4.90;;
50309;SDS011;36207;51.850;21.698;2023-01-01T13:39:58;12.40;;;4.70;;
50309;SDS011;36207;51.850;21.698;2023-01-01T13:45:24;14.00;;;5.10;;
50309;SDS011;36207;51.850;21.698;2023-01-01T13:56:29;8.90;;;4.60;;
50309;SDS011;36207;51.850;21.698;2023-01-01T14:07:46;11.20;;;5.00;;
50309;SDS011;36207;51.850;21.698;2023-01-01T14:12:44;13.20;;;5.20;;
50309;SDS011;36207;51.850;21.698;2023-01-01T14:15:15;11.10;;;5.20;;
50309;SDS011;36207;51.850;21.698;2023-01-01T14:17:48;11.00;;;5.30;;
50309;SDS011;36207;51.850;21.698;2023-01-01T14:20:18;11.00;;;5.40;;
50309;SDS011;36207;51.850;21.698;2023-01-01T14:22:47;11.70;;;5.00;;
50309;SDS011;36207;51.850;21.698;2023-01-01T14:25:17;35.90;;;20.20;;
50309;SDS011;36207;51.850;21.698;2023-01-01T14:27:51;30.20;;;13.40;;
50309;SDS011;36207;51.850;21.698;2023-01-01T14:30:19;15.10;;;6.90;;
50309;SDS011;36207;51.850;21.698;2023-01-01T14:32:47;18.90;;;7.00;;
50309;SDS011;36207;51.850;21.698;2023-01-01T14:35:20;26.50;;;11.70;;
50309;SDS011;36207;51.850;21.698;2023-01-01T14:37:47;12.70;;;6.30;;
50309;SDS011;36207;51.850;21.698;2023-01-01T14:43:00;20.60;;;8.20;;
50309;SDS011;36207;51.850;21.698;2023-01-01T14:45:30;18.10;;;7.50;;
50309;SDS011;36207;51.850;21.698;2023-01-01T14:48:00;15.30;;;7.60;;
50309;SDS011;36207;51.850;21.698;2023-01-01T14:50:30;15.80;;;7.40;;
50309;SDS011;36207;51.850;21.698;2023-01-01T14:53:10;12.80;;;6.50;;
50309;SDS011;36207;51.850;21.698;2023-01-01T14:55:43;13.30;;;6.50;;
50309;SDS011;36207;51.850;21.698;2023-01-01T14:58:14;25.70;;;14.20;;
50309;SDS011;36207;51.850;21.698;2023-01-01T15:00:49;19.80;;;9.90;;
50309;SDS011;36207;51.850;21.698;2023-01-01T15:03:20;23.70;;;12.60;;
50309;SDS011;36207;51.850;21.698;2023-01-01T15:05:58;16.20;;;8.70;;
50309;SDS011;36207;51.850;21.698;2023-01-01T15:08:29;15.50;;;7.80;;
50309;SDS011;36207;51.850;21.698;2023-01-01T15:10:56;13.60;;;7.20;;
50309;SDS011;36207;51.850;21.698;2023-01-01T15:13:23;14.30;;;6.40;;
50309;SDS011;36207;51.850;21.698;2023-01-01T15:15:55;11.30;;;6.40;;
50309;SDS011;36207;51.850;21.698;2023-01-01T15:18:40;17.20;;;8.80;;
50309;SDS011;36207;51.850;21.698;2023-01-01T15:23:53;11.90;;;5.80;;
50309;SDS011;36207;51.850;21.698;2023-01-01T15:29:00;12.20;;;6.50;;
50309;SDS011;36207;51.850;21.698;2023-01-01T15:31:39;16.60;;;6.90;;
50309;SDS011;36207;51.850;21.698;2023-01-01T15:34:24;13.20;;;7.40;;
50309;SDS011;36207;51.850;21.698;2023-01-01T15:39:51;14.90;;;7.30;;
50309;SDS011;36207;51.850;21.698;2023-01-01T15:42:21;15.50;;;7.40;;
50309;SDS011;36207;51.850;21.698;2023-01-01T15:44:54;18.10;;;9.60;;
50309;SDS011;36207;51.850;21.698;2023-01-01T15:47:21;21.90;;;10.20;;
50309;SDS011;36207;51.850;21.698;2023-01-01T15:50:08;19.50;;;9.00;;
50309;SDS011;36207;51.850;21.698;2023-01-01T15:52:58;13.70;;;7.60;;
50309;SDS011;36207;51.850;21.698;2023-01-01T15:55:59;13.90;;;8.30;;
50309;SDS011;36207;51.850;21.698;2023-01-01T16:01:13;15.40;;;7.60;;
50309;SDS011;36207;51.850;21.698;2023-01-01T16:03:45;14.10;;;7.30;;
50309;SDS011;36207;51.850;21.698;2023-01-01T16:06:19;13.00;;;7.60;;
50309;SDS011;36207;51.850;21.698;2023-01-01T16:08:46;13.80;;;7.50;;
50309;SDS011;36207;51.850;21.698;2023-01-01T16:11:12;15.10;;;8.40;;
50309;SDS011;36207;51.850;21.698;2023-01-01T16:13:39;15.00;;;8.20;;
50309;SDS011;36207;51.850;21.698;2023-01-01T16:16:14;17.00;;;7.80;;
50309;SDS011;36207;51.850;21.698;2023-01-01T16:18:46;18.00;;;8.30;;
50309;SDS011;36207;51.850;21.698;2023-01-01T16:21:12;15.70;;;8.60;;
50309;SDS011;36207;51.850;21.698;2023-01-01T16:23:38;16.70;;;9.20;;
50309;SDS011;36207;51.850;21.698;2023-01-01T16:26:05;16.90;;;9.50;;
50309;SDS011;36207;51.850;21.698;2023-01-01T16:28:31;15.50;;;8.50;;
50309;SDS011;36207;51.850;21.698;2023-01-01T16:30:57;16.80;;;10.00;;
50309;SDS011;36207;51.850;21.698;2023-01-01T16:33:23;21.10;;;11.30;;
50309;SDS011;36207;51.850;21.698;2023-01-01T16:35:50;22.80;;;10.80;;
50309;SDS011;36207;51.850;21.698;2023-01-01T16:38:16;18.00;;;10.30;;
50309;SDS011;36207;51.850;21.698;2023-01-01T16:40:42;17.50;;;9.80;;
50309;SDS011;36207;51.850;21.698;2023-01-01T16:43:14;17.90;;;8.80;;
50309;SDS011;36207;51.850;21.698;2023-01-01T16:45:43;17.70;;;9.50;;
50309;SDS011;36207;51.850;21.698;2023-01-01T16:48:10;17.80;;;9.90;;
50309;SDS011;36207;51.850;21.698;2023-01-01T16:50:36;17.50;;;9.40;;
50309;SDS011;36207;51.850;21.698;2023-01-01T16:53:03;13.90;;;8.70;;
50309;SDS011;36207;51.850;21.698;2023-01-01T16:55:29;16.00;;;9.10;;
50309;SDS011;36207;51.850;21.698;2023-01-01T16:57:56;19.40;;;9.90;;
50309;SDS011;36207;51.850;21.698;2023-01-01T17:00:22;18.10;;;9.30;;
50309;SDS011;36207;51.850;21.698;2023-01-01T17:02:48;18.10;;;10.00;;
50309;SDS011;36207;51.850;21.698;2023-01-01T17:05:14;16.40;;;9.70;;
50309;SDS011;36207;51.850;21.698;2023-01-01T17:07:41;16.40;;;9.40;;
50309;SDS011;36207;51.850;21.698;2023-01-01T17:10:07;17.50;;;9.50;;
50309;SDS011;36207;51.850;21.698;2023-01-01T17:12:33;17.40;;;10.50;;
50309;SDS011;36207;51.850;21.698;2023-01-01T17:15:00;20.30;;;10.50;;